createdAt,value
2023-03-18T00:01:07.467Z,1.73
2023-03-18T00:03:37.486Z,1.80
2023-03-18T00:06:19.285Z,1.98
2023-03-18T00:08:47.399Z,2.42
2023-03-18T00:11:16.291Z,3.40
2023-03-18T00:13:43.646Z,3.00
2023-03-18T00:16:12.452Z,1.83
2023-03-18T00:18:40.272Z,1.10
2023-03-18T00:21:07.225Z,0.73
2023-03-18T00:23:34.641Z,1.08
2023-03-18T00:26:02.309Z,1.17
2023-03-18T00:28:31.350Z,0.98
2023-03-18T00:31:05.302Z,1.40
2023-03-18T00:33:32.234Z,1.30
2023-03-18T00:35:59.679Z,1.17
2023-03-18T00:38:26.633Z,1.38
2023-03-18T00:40:53.835Z,1.10
2023-03-18T00:43:22.727Z,1.30
2023-03-18T00:45:50.573Z,1.10
2023-03-18T00:48:18.393Z,1.30
2023-03-18T00:50:45.588Z,1.27
2023-03-18T00:53:13.381Z,1.15
2023-03-18T00:55:41.148Z,0.98
2023-03-18T00:58:08.898Z,1.55
2023-03-18T01:00:37.079Z,1.23
2023-03-18T01:03:04.655Z,1.20
2023-03-18T01:05:33.633Z,1.40
2023-03-18T01:08:00.526Z,0.93
2023-03-18T01:10:28.605Z,1.20
2023-03-18T01:12:56.018Z,1.17
2023-03-18T01:15:23.950Z,1.08
2023-03-18T01:17:52.401Z,1.00
2023-03-18T01:20:20.949Z,1.27
2023-03-18T01:22:51.977Z,0.90
2023-03-18T01:25:20.302Z,0.93
2023-03-18T01:27:51.042Z,0.90
2023-03-18T01:30:18.032Z,0.93
2023-03-18T01:32:45.144Z,1.00
2023-03-18T01:35:12.386Z,1.10
2023-03-18T01:37:44.041Z,1.00
2023-03-18T01:40:13.573Z,1.02
2023-03-18T01:42:42.984Z,0.90
2023-03-18T01:45:24.656Z,0.75
2023-03-18T01:47:55.753Z,0.98
2023-03-18T01:50:27.678Z,1.20
2023-03-18T01:53:09.133Z,0.90
2023-03-18T01:55:37.855Z,1.10
2023-03-18T01:58:28.833Z,1.00
2023-03-18T02:01:05.100Z,0.88
2023-03-18T02:03:33.334Z,1.10
2023-03-18T02:06:00.169Z,0.80
2023-03-18T02:08:29.020Z,1.30
2023-03-18T02:10:56.445Z,1.00
2023-03-18T02:13:24.823Z,1.08
2023-03-18T02:15:56.854Z,0.88
2023-03-18T02:18:35.177Z,0.95
2023-03-18T02:21:17.085Z,1.10
2023-03-18T02:23:58.779Z,1.10
2023-03-18T02:26:36.340Z,1.02
2023-03-18T02:29:07.802Z,1.17
2023-03-18T02:31:45.091Z,0.80
2023-03-18T02:34:13.001Z,1.10
2023-03-18T02:36:41.912Z,1.08
2023-03-18T02:39:13.959Z,1.10
2023-03-18T02:41:40.997Z,0.57
2023-03-18T02:44:07.993Z,0.90
2023-03-18T02:46:47.249Z,1.08
2023-03-18T02:49:15.353Z,0.90
2023-03-18T02:51:42.280Z,0.75
2023-03-18T02:54:16.490Z,0.90
2023-03-18T02:56:44.212Z,0.90
2023-03-18T02:59:13.057Z,0.93
2023-03-18T03:01:44.068Z,4.65
2023-03-18T03:04:12.297Z,0.95
2023-03-18T03:06:40.522Z,0.70
2023-03-18T03:09:10.366Z,0.60
2023-03-18T03:11:38.045Z,0.73
2023-03-18T03:14:13.056Z,1.08
2023-03-18T03:16:41.009Z,1.20
2023-03-18T03:19:08.443Z,0.85
2023-03-18T03:21:36.679Z,0.90
2023-03-18T03:24:05.556Z,0.90
2023-03-18T03:26:33.657Z,0.93
2023-03-18T03:29:00.627Z,1.10
2023-03-18T03:31:27.545Z,1.00
2023-03-18T03:33:54.465Z,0.80
2023-03-18T03:36:21.614Z,1.02
2023-03-18T03:38:48.537Z,0.80
2023-03-18T03:41:15.913Z,1.20
2023-03-18T03:43:43.399Z,1.05
2023-03-18T03:46:11.244Z,0.88
2023-03-18T03:48:39.706Z,0.75
2023-03-18T03:51:11.008Z,1.10
2023-03-18T03:53:38.285Z,0.93
2023-03-18T03:56:07.632Z,1.02
2023-03-18T03:58:34.998Z,0.80
2023-03-18T04:01:02.571Z,0.80
2023-03-18T04:03:29.901Z,1.30
2023-03-18T04:05:57.254Z,0.80
2023-03-18T04:08:27.060Z,1.10
2023-03-18T04:10:54.036Z,1.00
2023-03-18T04:13:20.931Z,0.90
2023-03-18T04:15:48.600Z,1.02
2023-03-18T04:18:18.925Z,1.00
2023-03-18T04:20:46.413Z,1.10
2023-03-18T04:23:21.015Z,1.10
2023-03-18T04:25:47.832Z,1.00
2023-03-18T04:28:16.388Z,1.23
2023-03-18T04:30:43.185Z,1.05
2023-03-18T04:33:14.752Z,1.15
2023-03-18T04:35:43.595Z,1.40
2023-03-18T04:38:12.434Z,1.52
2023-03-18T04:40:39.604Z,1.13
2023-03-18T04:43:06.492Z,0.93
2023-03-18T04:45:34.091Z,0.93
2023-03-18T04:48:02.341Z,1.05
2023-03-18T04:50:33.144Z,1.08
2023-03-18T04:53:01.797Z,1.20
2023-03-18T04:55:30.814Z,0.90
2023-03-18T04:58:00.559Z,1.48
2023-03-18T05:00:29.906Z,0.90
2023-03-18T05:03:11.829Z,1.00
2023-03-18T05:05:39.857Z,1.10
2023-03-18T05:08:10.259Z,1.25
2023-03-18T05:10:38.446Z,0.88
2023-03-18T05:13:05.807Z,1.00
2023-03-18T05:15:35.103Z,0.85
2023-03-18T05:18:02.458Z,0.90
2023-03-18T05:20:29.644Z,0.73
2023-03-18T05:22:57.334Z,1.17
2023-03-18T05:25:41.198Z,1.00
2023-03-18T05:28:11.188Z,1.00
2023-03-18T05:30:45.825Z,0.85
2023-03-18T05:33:15.684Z,1.08
2023-03-18T05:35:49.274Z,1.05
2023-03-18T05:38:19.003Z,1.00
2023-03-18T05:40:46.371Z,1.10
2023-03-18T05:43:24.822Z,1.08
2023-03-18T05:45:56.010Z,0.80
2023-03-18T05:48:34.198Z,1.17
2023-03-18T05:51:05.879Z,1.00
2023-03-18T05:53:35.041Z,1.40
2023-03-18T05:56:15.502Z,1.13
2023-03-18T05:58:46.748Z,1.00
2023-03-18T06:01:28.213Z,1.20
2023-03-18T06:03:55.268Z,1.02
2023-03-18T06:06:22.334Z,0.90
2023-03-18T06:08:49.178Z,1.60
2023-03-18T06:11:17.025Z,1.27
2023-03-18T06:13:45.167Z,1.90
2023-03-18T06:16:12.423Z,1.23
2023-03-18T06:18:39.316Z,0.88
2023-03-18T06:21:09.129Z,1.33
2023-03-18T06:23:36.799Z,1.13
2023-03-18T06:26:04.287Z,1.08
2023-03-18T06:28:36.187Z,1.17
2023-03-18T06:31:08.575Z,1.50
2023-03-18T06:33:35.693Z,1.00
2023-03-18T06:36:02.960Z,0.90
2023-03-18T06:38:31.490Z,1.35
2023-03-18T06:40:59.891Z,1.17
2023-03-18T06:43:27.300Z,1.13
2023-03-18T06:45:54.403Z,1.00
2023-03-18T06:48:21.425Z,1.10
2023-03-18T06:50:49.881Z,1.23
2023-03-18T06:53:25.290Z,1.50
2023-03-18T06:55:53.973Z,1.30
2023-03-18T06:58:24.831Z,0.88
2023-03-18T07:01:18.052Z,0.90
2023-03-18T07:03:46.333Z,1.00
2023-03-18T07:06:14.059Z,1.63
2023-03-18T07:08:42.269Z,1.20
2023-03-18T07:11:09.295Z,1.63
2023-03-18T07:13:39.189Z,1.10
2023-03-18T07:16:12.458Z,1.40
2023-03-18T07:18:39.308Z,1.10
2023-03-18T07:21:06.602Z,1.48
2023-03-18T07:23:34.398Z,1.08
2023-03-18T07:26:01.578Z,1.02
2023-03-18T07:28:28.421Z,0.90
2023-03-18T07:30:55.426Z,0.95
2023-03-18T07:33:24.298Z,1.02
2023-03-18T07:35:51.163Z,1.30
2023-03-18T07:38:18.220Z,1.00
2023-03-18T07:40:45.042Z,0.95
2023-03-18T07:43:11.808Z,1.25
2023-03-18T07:45:38.649Z,0.93
2023-03-18T07:48:05.782Z,1.00
2023-03-18T07:50:32.765Z,1.10
2023-03-18T07:52:59.829Z,1.10
2023-03-18T07:55:26.699Z,1.02
2023-03-18T07:57:53.928Z,1.08
2023-03-18T08:00:21.348Z,1.00
2023-03-18T08:02:48.237Z,1.40
2023-03-18T08:05:15.883Z,1.30
2023-03-18T08:07:42.775Z,1.25
2023-03-18T08:10:10.300Z,1.40
2023-03-18T08:12:51.272Z,0.77
2023-03-18T08:15:19.239Z,0.75
2023-03-18T08:17:46.176Z,0.82
2023-03-18T08:20:13.512Z,0.90
2023-03-18T08:22:40.501Z,1.00
2023-03-18T08:25:08.224Z,1.00
2023-03-18T08:27:35.071Z,1.17
2023-03-18T08:30:03.802Z,1.08
2023-03-18T08:32:31.134Z,0.77
2023-03-18T08:34:57.972Z,0.88
2023-03-18T08:37:24.837Z,0.80
2023-03-18T08:39:51.646Z,0.68
2023-03-18T08:42:19.158Z,0.82
2023-03-18T08:44:46.007Z,0.80
2023-03-18T08:47:13.084Z,0.90
2023-03-18T08:49:40.200Z,0.90
2023-03-18T08:52:07.150Z,0.90
2023-03-18T08:54:33.978Z,0.90
2023-03-18T08:57:00.948Z,0.82
2023-03-18T08:59:27.832Z,0.75
2023-03-18T09:01:54.859Z,0.73
2023-03-18T09:04:21.823Z,0.70
2023-03-18T09:06:51.496Z,0.77
2023-03-18T09:09:18.490Z,0.77
2023-03-18T09:11:46.412Z,1.27
2023-03-18T09:14:13.702Z,0.80
2023-03-18T09:16:40.962Z,0.85
2023-03-18T09:19:07.959Z,0.60
2023-03-18T09:21:34.821Z,0.80
2023-03-18T09:24:01.650Z,0.80
2023-03-18T09:26:28.541Z,0.82
2023-03-18T09:28:55.351Z,0.65
2023-03-18T09:31:22.245Z,0.60
2023-03-18T09:33:49.401Z,0.88
2023-03-18T09:36:16.267Z,0.90
2023-03-18T09:38:43.816Z,1.08
2023-03-18T09:41:10.708Z,0.93
2023-03-18T09:44:08.592Z,1.10
2023-03-18T09:46:48.752Z,0.85
2023-03-18T09:49:49.550Z,0.70
2023-03-18T09:52:45.334Z,0.70
2023-03-18T09:55:28.786Z,0.80
2023-03-18T10:00:32.426Z,0.60
2023-03-18T10:03:10.993Z,0.60
2023-03-18T10:06:08.274Z,0.90
2023-03-18T10:08:58.374Z,0.80
2023-03-18T10:11:59.613Z,0.63
2023-03-18T10:14:42.398Z,0.85
2023-03-18T10:17:25.315Z,0.80
2023-03-18T10:19:57.358Z,0.80
2023-03-18T10:22:50.058Z,0.70
2023-03-18T10:25:27.185Z,1.13
2023-03-18T10:28:03.480Z,0.60
2023-03-18T10:30:59.981Z,0.70
2023-03-18T10:33:35.790Z,1.25
2023-03-18T10:36:16.803Z,0.70
2023-03-18T10:38:48.302Z,0.60
2023-03-18T10:41:32.826Z,0.88
2023-03-18T10:44:22.520Z,0.80
2023-03-18T10:46:58.354Z,0.70
2023-03-18T10:49:29.207Z,0.70
2023-03-18T10:52:08.553Z,0.73
2023-03-18T10:54:41.996Z,1.20
2023-03-18T10:57:14.496Z,0.90
2023-03-18T10:59:44.708Z,0.90
2023-03-18T11:02:36.146Z,0.80
2023-03-18T11:05:11.966Z,1.00
2023-03-18T11:08:06.247Z,0.85
2023-03-18T11:10:39.672Z,1.20
2023-03-18T11:13:06.773Z,0.93
2023-03-18T11:15:40.307Z,0.60
2023-03-18T11:18:17.216Z,0.77
2023-03-18T11:20:47.746Z,1.08
2023-03-18T11:23:46.471Z,0.85
2023-03-18T11:26:28.079Z,0.75
2023-03-18T11:29:11.050Z,1.10
2023-03-18T11:31:58.100Z,1.08
2023-03-18T11:34:27.204Z,0.93
2023-03-18T11:36:59.204Z,0.90
2023-03-18T11:39:28.764Z,0.90
2023-03-18T11:41:55.613Z,0.90
2023-03-18T11:44:30.923Z,0.88
2023-03-18T11:47:36.499Z,1.10
2023-03-18T11:50:04.512Z,1.10
2023-03-18T11:52:53.500Z,0.80
2023-03-18T11:55:23.493Z,1.17
2023-03-18T11:58:12.061Z,0.77
2023-03-18T12:01:10.701Z,1.00
2023-03-18T12:04:02.100Z,0.90
2023-03-18T12:06:31.508Z,1.13
2023-03-18T12:09:09.928Z,1.00
2023-03-18T12:12:08.844Z,0.88
2023-03-18T12:14:46.834Z,1.05
2023-03-18T12:17:46.817Z,0.80
2023-03-18T12:20:35.781Z,1.00
2023-03-18T12:23:19.585Z,1.10
2023-03-18T12:25:57.092Z,1.00
2023-03-18T12:28:45.358Z,0.82
2023-03-18T12:31:28.468Z,0.88
2023-03-18T12:34:01.528Z,1.20
2023-03-18T12:36:44.406Z,1.00
2023-03-18T12:39:52.148Z,1.00
2023-03-18T12:42:42.483Z,1.20
2023-03-18T12:45:16.845Z,0.70
2023-03-18T12:47:49.529Z,0.82
2023-03-18T12:50:33.789Z,0.73
2023-03-18T12:53:05.065Z,0.85
2023-03-18T12:55:37.614Z,1.17
2023-03-18T12:58:20.919Z,1.15
2023-03-18T13:00:59.963Z,0.90
2023-03-18T13:03:40.129Z,0.88
2023-03-18T13:06:31.731Z,0.82
2023-03-18T13:09:15.499Z,0.88
2023-03-18T13:11:54.946Z,1.05
2023-03-18T13:14:21.829Z,0.90
2023-03-18T13:16:50.488Z,0.88
2023-03-18T13:19:18.446Z,0.88
2023-03-18T13:22:32.783Z,0.88
2023-03-18T13:25:18.759Z,0.77
2023-03-18T13:27:57.877Z,0.73
2023-03-18T13:30:28.361Z,0.85
2023-03-18T13:33:03.309Z,1.00
2023-03-18T13:35:57.491Z,1.00
2023-03-18T13:38:51.815Z,0.80
2023-03-18T13:41:18.752Z,0.82
2023-03-18T13:43:49.427Z,1.00
2023-03-18T13:46:29.144Z,0.85
2023-03-18T13:49:02.003Z,0.80
2023-03-18T13:51:28.800Z,0.85
2023-03-18T13:54:05.733Z,1.27
2023-03-18T13:56:43.604Z,0.70
2023-03-18T13:59:35.549Z,0.80
2023-03-18T14:02:24.376Z,0.60
2023-03-18T14:04:52.417Z,0.60
2023-03-18T14:07:21.502Z,0.68
2023-03-18T14:10:17.689Z,0.70
2023-03-18T14:12:49.738Z,0.70
2023-03-18T14:15:35.745Z,0.80
2023-03-18T14:18:03.112Z,0.70
2023-03-18T14:20:41.927Z,0.90
2023-03-18T14:23:39.882Z,0.68
2023-03-18T14:26:19.198Z,0.60
2023-03-18T14:29:13.631Z,0.68
2023-03-18T14:31:40.436Z,0.55
2023-03-18T14:34:19.474Z,0.85
2023-03-18T14:36:52.327Z,0.63
2023-03-18T14:39:44.158Z,0.60
2023-03-18T14:42:23.292Z,0.80
2023-03-18T14:44:54.134Z,0.60
2023-03-18T14:47:39.083Z,0.55
2023-03-18T14:50:22.353Z,0.63
2023-03-18T14:52:56.702Z,0.70
2023-03-18T14:55:30.473Z,0.80
2023-03-18T14:57:57.562Z,0.70
2023-03-18T15:00:26.042Z,0.80
2023-03-18T15:03:01.774Z,0.50
2023-03-18T15:05:33.969Z,0.90
2023-03-18T15:08:01.337Z,0.57
2023-03-18T15:10:31.512Z,0.63
2023-03-18T15:13:07.967Z,0.63
2023-03-18T15:15:35.934Z,0.88
2023-03-18T15:18:27.471Z,0.68
2023-03-18T15:21:07.830Z,0.75
2023-03-18T15:23:42.123Z,1.42
2023-03-18T15:26:21.506Z,0.95
2023-03-18T15:28:49.953Z,1.25
2023-03-18T15:31:44.275Z,1.08
2023-03-18T15:34:31.440Z,1.23
2023-03-18T15:37:00.987Z,1.30
2023-03-18T15:39:27.944Z,1.35
2023-03-18T15:41:56.967Z,1.88
2023-03-18T15:44:38.192Z,2.05
2023-03-18T15:47:17.757Z,1.60
2023-03-18T15:50:00.336Z,1.17
2023-03-18T15:52:33.616Z,1.10
2023-03-18T15:57:36.255Z,1.52
2023-03-18T16:00:05.114Z,1.15
2023-03-18T16:02:39.083Z,1.10
2023-03-18T16:05:27.785Z,0.90
2023-03-18T16:07:54.886Z,1.13
2023-03-18T16:10:23.916Z,2.60
2023-03-18T16:12:54.630Z,1.98
2023-03-18T16:15:24.003Z,1.85
2023-03-18T16:17:55.841Z,1.88
2023-03-18T16:20:27.492Z,1.40
2023-03-18T16:22:54.964Z,1.60
2023-03-18T16:25:23.704Z,1.65
2023-03-18T16:27:54.070Z,1.15
2023-03-18T16:30:29.942Z,1.60
2023-03-18T16:32:57.946Z,1.60
2023-03-18T16:35:29.723Z,1.50
2023-03-18T16:37:56.773Z,1.40
2023-03-18T16:40:28.372Z,1.70
2023-03-18T16:42:55.928Z,2.38
2023-03-18T16:45:31.262Z,1.60
2023-03-18T16:48:01.258Z,1.65
2023-03-18T16:50:35.898Z,1.50
2023-03-18T16:53:03.654Z,1.88
2023-03-18T16:55:31.476Z,1.50
2023-03-18T16:58:02.549Z,1.20
2023-03-18T17:00:32.109Z,1.60
2023-03-18T17:03:00.727Z,1.60
2023-03-18T17:05:28.852Z,1.40
2023-03-18T17:07:55.904Z,1.40
2023-03-18T17:10:26.324Z,1.60
2023-03-18T17:12:59.591Z,2.00
2023-03-18T17:17:59.568Z,1.42
2023-03-18T17:20:29.086Z,1.33
2023-03-18T17:22:56.239Z,1.60
2023-03-18T17:25:25.676Z,2.10
2023-03-18T17:27:56.360Z,1.90
2023-03-18T17:30:29.423Z,1.75
2023-03-18T17:32:56.639Z,1.85
2023-03-18T17:35:24.309Z,1.50
2023-03-18T17:37:51.656Z,1.50
2023-03-18T17:40:20.778Z,1.42
2023-03-18T17:42:50.241Z,2.03
2023-03-18T17:45:32.602Z,2.42
2023-03-18T17:48:25.072Z,1.90
2023-03-18T17:50:58.495Z,1.90
2023-03-18T17:53:26.977Z,1.80
2023-03-18T17:55:57.718Z,2.30
2023-03-18T17:58:28.388Z,2.15
2023-03-18T18:01:10.632Z,2.35
2023-03-18T18:03:38.880Z,1.80
2023-03-18T18:06:06.900Z,1.50
2023-03-18T18:08:34.248Z,1.75
2023-03-18T18:11:17.761Z,1.70
2023-03-18T18:16:12.242Z,2.00
2023-03-18T18:18:39.966Z,2.00
2023-03-18T18:21:17.232Z,1.70
2023-03-18T18:23:48.641Z,4.47
2023-03-18T18:26:18.013Z,7.53
2023-03-18T18:28:48.054Z,4.68
2023-03-18T18:31:17.535Z,3.28
2023-03-18T18:33:45.624Z,2.58
2023-03-18T18:36:14.209Z,3.25
2023-03-18T18:38:41.279Z,3.53
2023-03-18T18:41:08.798Z,3.10
2023-03-18T18:43:36.079Z,4.07
2023-03-18T18:46:03.537Z,4.63
2023-03-18T18:48:38.245Z,6.18
2023-03-18T18:51:05.587Z,10.00
2023-03-18T18:53:36.527Z,12.75
2023-03-18T18:56:13.118Z,12.95
2023-03-18T18:58:40.180Z,13.50
2023-03-18T19:01:07.119Z,12.23
2023-03-18T19:03:34.075Z,10.00
2023-03-18T19:06:02.062Z,8.68
2023-03-18T19:08:31.943Z,8.00
2023-03-18T19:11:09.640Z,8.13
2023-03-18T19:13:40.086Z,7.65
2023-03-18T19:16:30.611Z,7.93
2023-03-18T19:18:58.068Z,7.78
2023-03-18T19:21:25.093Z,7.38
2023-03-18T19:23:51.946Z,5.38
2023-03-18T19:26:21.271Z,5.65
2023-03-18T19:28:57.716Z,5.05
2023-03-18T19:31:27.558Z,5.35
2023-03-18T19:33:54.571Z,6.25
2023-03-18T19:36:28.265Z,5.78
2023-03-18T19:38:57.939Z,6.30
2023-03-18T19:41:25.515Z,6.68
2023-03-18T19:43:52.344Z,6.70
2023-03-18T19:46:23.676Z,6.78
2023-03-18T19:48:50.690Z,5.63
2023-03-18T19:51:17.570Z,5.82
2023-03-18T19:53:46.202Z,6.30
2023-03-18T19:56:28.647Z,7.13
2023-03-18T19:58:58.288Z,6.80
2023-03-18T20:01:27.096Z,6.25
2023-03-18T20:03:59.417Z,5.70
2023-03-18T20:06:26.333Z,4.43
2023-03-18T20:08:53.463Z,3.28
2023-03-18T20:11:23.493Z,3.28
2023-03-18T20:13:50.778Z,4.68
2023-03-18T20:16:19.305Z,9.20
2023-03-18T20:18:46.320Z,13.07
2023-03-18T20:21:27.529Z,11.65
2023-03-18T20:24:00.980Z,8.95
2023-03-18T20:26:27.905Z,7.65
2023-03-18T20:28:56.058Z,6.55
2023-03-18T20:31:23.181Z,4.70
2023-03-18T20:33:50.195Z,5.15
2023-03-18T20:36:18.175Z,4.40
2023-03-18T20:38:49.854Z,3.63
2023-03-18T20:41:20.932Z,3.20
2023-03-18T20:43:50.836Z,3.10
2023-03-18T20:46:17.868Z,3.13
2023-03-18T20:48:45.027Z,2.67
2023-03-18T20:51:26.401Z,3.10
2023-03-18T20:53:53.781Z,3.00
2023-03-18T20:56:22.900Z,2.30
2023-03-18T20:58:50.379Z,2.15
2023-03-18T21:01:18.390Z,2.58
2023-03-18T21:03:45.578Z,2.20
2023-03-18T21:06:15.466Z,2.95
2023-03-18T21:08:43.154Z,6.78
2023-03-18T21:11:21.675Z,10.15
2023-03-18T21:13:49.005Z,10.07
2023-03-18T21:16:16.983Z,8.48
2023-03-18T21:18:47.703Z,10.15
2023-03-18T21:21:27.500Z,9.88
2023-03-18T21:23:54.625Z,11.45
2023-03-18T21:26:23.326Z,7.25
2023-03-18T21:28:50.828Z,8.65
2023-03-18T21:31:25.400Z,10.68
2023-03-18T21:33:53.125Z,11.57
2023-03-18T21:36:20.580Z,9.43
2023-03-18T21:38:47.682Z,9.13
2023-03-18T21:41:23.682Z,9.40
2023-03-18T21:43:50.928Z,8.43
2023-03-18T21:46:20.252Z,8.65
2023-03-18T21:48:47.399Z,8.07
2023-03-18T21:51:38.603Z,8.10
2023-03-18T21:54:14.364Z,7.13
2023-03-18T21:56:41.361Z,5.63
2023-03-18T21:59:08.101Z,5.70
2023-03-18T22:01:34.993Z,5.40
2023-03-18T22:04:02.101Z,5.47
2023-03-18T22:06:29.032Z,6.72
2023-03-18T22:08:57.311Z,5.55
2023-03-18T22:11:24.238Z,5.20
2023-03-18T22:13:51.012Z,4.82
2023-03-18T22:16:18.830Z,4.10
2023-03-18T22:18:47.303Z,3.60
2023-03-18T22:21:14.144Z,3.40
2023-03-18T22:23:42.907Z,3.70
2023-03-18T22:26:15.351Z,3.80
2023-03-18T22:28:42.592Z,3.38
2023-03-18T22:31:36.102Z,3.70
2023-03-18T22:34:03.064Z,3.22
2023-03-18T22:36:29.875Z,3.15
2023-03-18T22:38:56.685Z,3.25
2023-03-18T22:41:30.229Z,3.42
2023-03-18T22:44:03.421Z,3.50
2023-03-18T22:48:59.159Z,4.47
2023-03-18T22:51:31.276Z,3.70
2023-03-18T22:53:58.254Z,3.63
2023-03-18T22:56:25.103Z,3.75
2023-03-18T22:58:52.094Z,4.18
2023-03-18T23:01:21.241Z,3.40
2023-03-18T23:03:48.968Z,3.80
2023-03-18T23:06:18.636Z,3.80
2023-03-18T23:08:45.999Z,5.22
2023-03-18T23:11:13.808Z,3.50
2023-03-18T23:13:45.403Z,3.80
2023-03-18T23:16:16.450Z,3.50
2023-03-18T23:18:43.802Z,3.30
2023-03-18T23:21:16.876Z,4.03
2023-03-18T23:23:43.971Z,4.20
2023-03-18T23:26:11.362Z,4.40
2023-03-18T23:28:44.552Z,3.78
2023-03-18T23:31:12.690Z,5.15
2023-03-18T23:33:39.779Z,4.05
2023-03-18T23:36:07.539Z,4.35
2023-03-18T23:38:34.442Z,4.07
2023-03-18T23:41:01.429Z,4.30
2023-03-18T23:43:28.228Z,4.13
2023-03-18T23:45:55.209Z,4.30
2023-03-18T23:48:22.070Z,4.40
2023-03-18T23:50:48.898Z,3.95
2023-03-18T23:53:16.191Z,3.30
2023-03-18T23:55:43.052Z,3.60
2023-03-18T23:58:10.021Z,4.93
